Sandra Hugh — WDD9019 — position and weather

sailwx.info

Track history (hours):
 
Tides and Currents Weather Stations Pressure Air Temp Water Temp Dewpoint Dewpoint Depression Visibility Wind Speed Wind Dir Waves Ship Positions

Sandra Hugh

Owner: Sortwell Inc., DBA AmNav Maritime Services, Oakland, CA. More information available from US FCC via Universal Licensing System and Coast Guard Vessel Documentation Center.

Last reported at 2015-Jan-29 11:33 UTC. Time now 2015-Jan-29 12:21 UTC.
Position N 37°49' W 122°20'.

Length 24 m; draft 4.9 m.

Type: Tug. MMSI: 367305920.

Date/timePositionNaut miles runAvg speedWind from/ knotsBaromVisibWave heightAir tempDewpointWater temp
2015-Jan-29 11:33N 37°49' W 122°20'1 1.2
2015-Jan-29 10:32N 37°49' W 122°19'0 0.0
2015-Jan-29 09:32N 37°49' W 122°19'0 0.0
2015-Jan-29 08:32N 37°49' W 122°19'0 0.0
2015-Jan-29 07:32N 37°49' W 122°19'0 0.0
2015-Jan-29 06:32N 37°49' W 122°19'0 0.0
2015-Jan-29 05:32N 37°49' W 122°19'0 0.0
2015-Jan-29 04:26N 37°49' W 122°19'0 0.0
2015-Jan-29 03:32N 37°49' W 122°19'0 0.0
2015-Jan-29 02:32N 37°49' W 122°19'0 0.0
2015-Jan-29 01:29N 37°49' W 122°19'0 0.0
2015-Jan-29 00:32N 37°49' W 122°19'0 0.0
2015-Jan-28 23:32N 37°49' W 122°19'0 0.0
2015-Jan-28 22:32N 37°49' W 122°19'0 0.0
2015-Jan-28 21:32N 37°49' W 122°19'0 0.0
2015-Jan-28 20:32N 37°49' W 122°19'2 1.9
2015-Jan-28 19:33N 37°48' W 122°18'0 0.1
2015-Jan-28 18:33N 37°48' W 122°18'2 1.9
2015-Jan-28 17:31N 37°49' W 122°20'0 0.0
2015-Jan-28 16:31N 37°49' W 122°20'0 0.0
2015-Jan-28 15:31N 37°49' W 122°20'3 3.1
2015-Jan-28 14:32N 37°48' W 122°24'0 0.4
2015-Jan-28 13:33N 37°49' W 122°24'3 2.8
2015-Jan-28 12:32N 37°49' W 122°20'0 0.0
2015-Jan-28 11:32N 37°49' W 122°20'0 0.0
2015-Jan-28 10:31N 37°49' W 122°20'0 0.0
2015-Jan-28 09:31N 37°49' W 122°20'0 0.0
2015-Jan-28 08:31N 37°49' W 122°20'0 0.0
2015-Jan-28 07:28N 37°49' W 122°20'0 0.1
2015-Jan-28 06:33N 37°49' W 122°20'2 2.5
2015-Jan-28 05:33N 37°48' W 122°17'4 4.1
2015-Jan-28 04:33N 37°48' W 122°22'3 3.1
2015-Jan-28 03:33N 37°49' W 122°19'0 0.0
2015-Jan-28 02:33N 37°49' W 122°19'0 0.0
2015-Jan-28 01:33N 37°49' W 122°19'0 0.3
2015-Jan-28 00:30N 37°49' W 122°19'2 1.6
2015-Jan-27 23:34N 37°48' W 122°21'8 7.6
2015-Jan-27 22:33N 37°55' W 122°25'0 0.4
2015-Jan-27 21:33N 37°55' W 122°25'5 5.1
2015-Jan-27 20:33N 38°00' W 122°24'12 1.1
2015-Jan-27 09:33N 38°02' W 122°09'5 4.8
2015-Jan-27 08:33N 38°04' W 122°15'9 8.7
2015-Jan-27 07:33N 37°60' W 122°25'9 8.9
2015-Jan-27 06:33N 37°51' W 122°23'4 3.8
2015-Jan-27 05:33N 37°49' W 122°19'0 0.0
2015-Jan-27 04:33N 37°49' W 122°19'0 0.0
2015-Jan-27 03:33N 37°49' W 122°19'0 0.0
2015-Jan-27 02:30N 37°49' W 122°19'1 0.9
2015-Jan-27 01:30N 37°49' W 122°20'0 0.1
2015-Jan-27 00:33N 37°49' W 122°19'1 0.5
2015-Jan-26 23:31N 37°49' W 122°20'8 8.3
2015-Jan-26 22:33N 37°55' W 122°25'9 9.4
2015-Jan-26 21:33N 38°03' W 122°19'21 6.9
2015-Jan-26 18:31N 38°02' W 121°52'4 4.2
2015-Jan-26 17:29N 38°03' W 121°57'7 7.7
2015-Jan-26 16:33N 38°03' W 122°06'  
2015-Jan-24 10:21N 38°02' W 122°08'2 0.3
2015-Jan-24 04:29N 38°02' W 122°10'7 7.0
2015-Jan-24 03:34N 38°03' W 122°19'8 7.5
2015-Jan-24 02:33N 37°58' W 122°26'9 8.9
2015-Jan-24 01:33N 37°50' W 122°22'2 2.2
2015-Jan-24 00:33N 37°49' W 122°19'0 0.3
2015-Jan-23 23:32N 37°49' W 122°19'0 0.0
2015-Jan-23 22:32N 37°49' W 122°19'0 0.0
2015-Jan-23 21:26N 37°49' W 122°19'0 0.0
2015-Jan-23 20:32N 37°49' W 122°19'0 0.0
2015-Jan-23 19:26N 37°49' W 122°19'0 0.0
2015-Jan-23 18:32N 37°49' W 122°19'0 0.0
2015-Jan-23 17:32N 37°49' W 122°19'1 1.5
2015-Jan-23 16:33N 37°49' W 122°20'1 0.6
2015-Jan-23 15:32N 37°49' W 122°20'0 0.1
2015-Jan-23 14:32N 37°49' W 122°20'1 0.9
2015-Jan-23 13:33N 37°49' W 122°19'0 0.0
2015-Jan-23 12:33N 37°49' W 122°19'0 0.0
2015-Jan-23 11:33N 37°49' W 122°19'0 0.0
2015-Jan-23 10:33N 37°49' W 122°19'0 0.0
2015-Jan-23 09:33N 37°49' W 122°19'0 0.0
2015-Jan-23 08:33N 37°49' W 122°19'0 0.0
2015-Jan-23 07:33N 37°49' W 122°19'0 0.0
2015-Jan-23 06:33N 37°49' W 122°19'0 0.0
2015-Jan-23 05:30N 37°49' W 122°19'0 0.0
2015-Jan-23 04:33N 37°49' W 122°19'0 0.0
2015-Jan-23 03:33N 37°49' W 122°19'0 0.0
2015-Jan-23 02:33N 37°49' W 122°19'0 0.0
2015-Jan-23 01:33N 37°49' W 122°19'0 0.0
2015-Jan-23 00:30N 37°49' W 122°19'5 4.8
2015-Jan-22 23:33N 37°52' W 122°24'3 3.0
2015-Jan-22 22:28N 37°55' W 122°22'0 0.4
2015-Jan-22 21:33N 37°54' W 122°22'6 5.8
2015-Jan-22 20:33N 37°49' W 122°20'1 1.4
2015-Jan-22 19:28N 37°49' W 122°19'0 0.0
2015-Jan-22 18:28N 37°49' W 122°19'0 0.0
2015-Jan-22 17:31N 37°49' W 122°19'0 0.0
2015-Jan-22 16:31N 37°49' W 122°19'0 0.0
2015-Jan-22 15:22N 37°49' W 122°19'0 0.0
2015-Jan-22 14:31N 37°49' W 122°19'0 0.0
2015-Jan-22 13:31N 37°49' W 122°19'0 0.0
2015-Jan-22 12:28N 37°49' W 122°19'0 0.0
2015-Jan-22 11:31N 37°49' W 122°19'0 0.0
2015-Jan-22 10:25N 37°49' W 122°19'0 0.0
2015-Jan-22 09:31N 37°49' W 122°19'0 0.0
2015-Jan-22 08:31N 37°49' W 122°19'0 0.0
2015-Jan-22 07:31N 37°49' W 122°19'0 0.0
2015-Jan-22 06:31N 37°49' W 122°19'0 0.0
2015-Jan-22 05:28N 37°49' W 122°19'1 0.9
2015-Jan-22 04:30N 37°49' W 122°20'1 1.0
2015-Jan-22 03:33N 37°48' W 122°21'1 1.2
2015-Jan-22 02:33N 37°49' W 122°19'3 2.6
2015-Jan-22 01:33N 37°48' W 122°22'1 1.4
2015-Jan-22 00:32N 37°48' W 122°21'1 1.0
2015-Jan-21 23:31N 37°49' W 122°19'0 0.4
2015-Jan-21 22:50N 37°49' W 122°19'0 0.2
2015-Jan-21 22:44N 37°49' W 122°19'0 1.1
2015-Jan-21 22:33N 37°49' W 122°19'1 0.6
2015-Jan-21 21:29N 37°49' W 122°19'0 0.0
2015-Jan-21 20:32N 37°49' W 122°19'0 0.0
2015-Jan-21 19:26N 37°49' W 122°19'0 0.0
2015-Jan-21 18:26N 37°49' W 122°19'0 0.0
2015-Jan-21 17:32N 37°49' W 122°19'0 0.0
2015-Jan-21 16:32N 37°49' W 122°19'0 0.0
2015-Jan-21 15:32N 37°49' W 122°19'0 0.0
2015-Jan-21 14:32N 37°49' W 122°19'0 0.0
2015-Jan-21 13:32N 37°49' W 122°19'0 0.0
2015-Jan-21 12:32N 37°49' W 122°19'0 0.0
2015-Jan-21 11:32N 37°49' W 122°19'0 0.0
2015-Jan-21 10:32N 37°49' W 122°19'0 0.2
2015-Jan-21 09:33N 37°49' W 122°19'8 7.6
2015-Jan-21 08:32N 37°55' W 122°25'1 1.3
2015-Jan-21 07:28N 37°54' W 122°25'0 0.3
2015-Jan-21 06:32N 37°54' W 122°25'3 2.7
2015-Jan-21 05:33N 37°55' W 122°22'0 0.0
2015-Jan-21 04:33N 37°55' W 122°22'0 0.3
2015-Jan-21 03:30N 37°55' W 122°22'3 3.0
2015-Jan-21 02:33N 37°55' W 122°25'7 7.3
2015-Jan-21 01:33N 37°49' W 122°20'1 0.8
2015-Jan-21 00:33N 37°49' W 122°19'0 0.3
2015-Jan-20 23:28N 37°49' W 122°19'0 0.0
2015-Jan-20 22:31N 37°49' W 122°19'0 0.0
2015-Jan-20 21:28N 37°49' W 122°19'0 0.0
2015-Jan-20 20:28N 37°49' W 122°19'0 0.0
2015-Jan-20 19:31N 37°49' W 122°19'0 0.0
2015-Jan-20 18:31N 37°49' W 122°19'0 0.0
2015-Jan-20 17:31N 37°49' W 122°19'0 0.0
2015-Jan-20 16:31N 37°49' W 122°19'0 0.0
2015-Jan-20 15:31N 37°49' W 122°19'0 0.0
2015-Jan-20 14:31N 37°49' W 122°19'0 0.0
2015-Jan-20 13:31N 37°49' W 122°19'0 0.0
2015-Jan-20 12:31N 37°49' W 122°19'0 0.0
2015-Jan-20 11:31N 37°49' W 122°19'0 0.0
2015-Jan-20 10:31N 37°49' W 122°19'0 0.0
2015-Jan-20 09:31N 37°49' W 122°19'0 0.0
2015-Jan-20 08:31N 37°49' W 122°19'0 0.0
2015-Jan-20 07:31N 37°49' W 122°19'0 0.0
2015-Jan-20 06:31N 37°49' W 122°19'0 0.0
2015-Jan-20 05:31N 37°49' W 122°19'0 0.0
2015-Jan-20 04:31N 37°49' W 122°19'0 0.0
2015-Jan-20 03:28N 37°49' W 122°19'0 0.0
2015-Jan-20 02:25N 37°49' W 122°19'0 0.0
2015-Jan-20 01:31N 37°49' W 122°19'0 0.0
2015-Jan-20 00:31N 37°49' W 122°19'0 0.0
2015-Jan-19 23:31N 37°49' W 122°19'0 0.0
2015-Jan-19 22:31N 37°49' W 122°19'0 0.0
2015-Jan-19 21:31N 37°49' W 122°19'0 0.0
2015-Jan-19 20:31N 37°49' W 122°19'0 0.0
2015-Jan-19 19:31N 37°49' W 122°19'0 0.0
2015-Jan-19 18:31N 37°49' W 122°19'0 0.0
2015-Jan-19 17:31N 37°49' W 122°19'0 0.0
2015-Jan-19 16:31N 37°49' W 122°19'0 0.0
2015-Jan-19 15:31N 37°49' W 122°19'0 0.0
2015-Jan-19 14:31N 37°49' W 122°19'0 0.0
2015-Jan-19 13:31N 37°49' W 122°19'0 0.0
2015-Jan-19 12:31N 37°49' W 122°19'  
Track history (hours):
 
Tides and Currents Weather Stations Pressure Air Temp Water Temp Dewpoint Dewpoint Depression Visibility Wind Speed Wind Dir Waves Ship Positions

Sandra Hugh

Owner: Sortwell Inc., DBA AmNav Maritime Services, Oakland, CA. More information available from US FCC via Universal Licensing System and Coast Guard Vessel Documentation Center.

Last reported at 2015-Jan-29 11:33 UTC. Time now 2015-Jan-29 12:21 UTC.
Position N 37°49' W 122°20'.

Length 24 m; draft 4.9 m.

Type: Tug. MMSI: 367305920.

Date/timePositionNaut miles runAvg speedWind from/ knotsBaromVisibWave heightAir tempDewpointWater temp
2015-Jan-29 11:33N 37°49' W 122°20'1 1.2
2015-Jan-29 10:32N 37°49' W 122°19'0 0.0
2015-Jan-29 09:32N 37°49' W 122°19'0 0.0
2015-Jan-29 08:32N 37°49' W 122°19'0 0.0
2015-Jan-29 07:32N 37°49' W 122°19'0 0.0
2015-Jan-29 06:32N 37°49' W 122°19'0 0.0
2015-Jan-29 05:32N 37°49' W 122°19'0 0.0
2015-Jan-29 04:26N 37°49' W 122°19'0 0.0
2015-Jan-29 03:32N 37°49' W 122°19'0 0.0
2015-Jan-29 02:32N 37°49' W 122°19'0 0.0
2015-Jan-29 01:29N 37°49' W 122°19'0 0.0
2015-Jan-29 00:32N 37°49' W 122°19'0 0.0
2015-Jan-28 23:32N 37°49' W 122°19'0 0.0
2015-Jan-28 22:32N 37°49' W 122°19'0 0.0
2015-Jan-28 21:32N 37°49' W 122°19'0 0.0
2015-Jan-28 20:32N 37°49' W 122°19'2 1.9
2015-Jan-28 19:33N 37°48' W 122°18'0 0.1
2015-Jan-28 18:33N 37°48' W 122°18'2 1.9
2015-Jan-28 17:31N 37°49' W 122°20'0 0.0
2015-Jan-28 16:31N 37°49' W 122°20'0 0.0
2015-Jan-28 15:31N 37°49' W 122°20'3 3.1
2015-Jan-28 14:32N 37°48' W 122°24'0 0.4
2015-Jan-28 13:33N 37°49' W 122°24'3 2.8
2015-Jan-28 12:32N 37°49' W 122°20'0 0.0
2015-Jan-28 11:32N 37°49' W 122°20'0 0.0
2015-Jan-28 10:31N 37°49' W 122°20'0 0.0
2015-Jan-28 09:31N 37°49' W 122°20'0 0.0
2015-Jan-28 08:31N 37°49' W 122°20'0 0.0
2015-Jan-28 07:28N 37°49' W 122°20'0 0.1
2015-Jan-28 06:33N 37°49' W 122°20'2 2.5
2015-Jan-28 05:33N 37°48' W 122°17'4 4.1
2015-Jan-28 04:33N 37°48' W 122°22'3 3.1
2015-Jan-28 03:33N 37°49' W 122°19'0 0.0
2015-Jan-28 02:33N 37°49' W 122°19'0 0.0
2015-Jan-28 01:33N 37°49' W 122°19'0 0.3
2015-Jan-28 00:30N 37°49' W 122°19'2 1.6
2015-Jan-27 23:34N 37°48' W 122°21'8 7.6
2015-Jan-27 22:33N 37°55' W 122°25'0 0.4
2015-Jan-27 21:33N 37°55' W 122°25'5 5.1
2015-Jan-27 20:33N 38°00' W 122°24'12 1.1
2015-Jan-27 09:33N 38°02' W 122°09'5 4.8
2015-Jan-27 08:33N 38°04' W 122°15'9 8.7
2015-Jan-27 07:33N 37°60' W 122°25'9 8.9
2015-Jan-27 06:33N 37°51' W 122°23'4 3.8
2015-Jan-27 05:33N 37°49' W 122°19'0 0.0
2015-Jan-27 04:33N 37°49' W 122°19'0 0.0
2015-Jan-27 03:33N 37°49' W 122°19'0 0.0
2015-Jan-27 02:30N 37°49' W 122°19'1 0.9
2015-Jan-27 01:30N 37°49' W 122°20'0 0.1
2015-Jan-27 00:33N 37°49' W 122°19'1 0.5
2015-Jan-26 23:31N 37°49' W 122°20'8 8.3
2015-Jan-26 22:33N 37°55' W 122°25'9 9.4
2015-Jan-26 21:33N 38°03' W 122°19'21 6.9
2015-Jan-26 18:31N 38°02' W 121°52'4 4.2
2015-Jan-26 17:29N 38°03' W 121°57'7 7.7
2015-Jan-26 16:33N 38°03' W 122°06'  
2015-Jan-24 10:21N 38°02' W 122°08'2 0.3
2015-Jan-24 04:29N 38°02' W 122°10'7 7.0
2015-Jan-24 03:34N 38°03' W 122°19'8 7.5
2015-Jan-24 02:33N 37°58' W 122°26'9 8.9
2015-Jan-24 01:33N 37°50' W 122°22'2 2.2
2015-Jan-24 00:33N 37°49' W 122°19'0 0.3
2015-Jan-23 23:32N 37°49' W 122°19'0 0.0
2015-Jan-23 22:32N 37°49' W 122°19'0 0.0
2015-Jan-23 21:26N 37°49' W 122°19'0 0.0
2015-Jan-23 20:32N 37°49' W 122°19'0 0.0
2015-Jan-23 19:26N 37°49' W 122°19'0 0.0
2015-Jan-23 18:32N 37°49' W 122°19'0 0.0
2015-Jan-23 17:32N 37°49' W 122°19'1 1.5
2015-Jan-23 16:33N 37°49' W 122°20'1 0.6
2015-Jan-23 15:32N 37°49' W 122°20'0 0.1
2015-Jan-23 14:32N 37°49' W 122°20'1 0.9
2015-Jan-23 13:33N 37°49' W 122°19'0 0.0
2015-Jan-23 12:33N 37°49' W 122°19'0 0.0
2015-Jan-23 11:33N 37°49' W 122°19'0 0.0
2015-Jan-23 10:33N 37°49' W 122°19'0 0.0
2015-Jan-23 09:33N 37°49' W 122°19'0 0.0
2015-Jan-23 08:33N 37°49' W 122°19'0 0.0
2015-Jan-23 07:33N 37°49' W 122°19'0 0.0
2015-Jan-23 06:33N 37°49' W 122°19'0 0.0
2015-Jan-23 05:30N 37°49' W 122°19'0 0.0
2015-Jan-23 04:33N 37°49' W 122°19'0 0.0
2015-Jan-23 03:33N 37°49' W 122°19'0 0.0
2015-Jan-23 02:33N 37°49' W 122°19'0 0.0
2015-Jan-23 01:33N 37°49' W 122°19'0 0.0
2015-Jan-23 00:30N 37°49' W 122°19'5 4.8
2015-Jan-22 23:33N 37°52' W 122°24'3 3.0
2015-Jan-22 22:28N 37°55' W 122°22'0 0.4
2015-Jan-22 21:33N 37°54' W 122°22'6 5.8
2015-Jan-22 20:33N 37°49' W 122°20'1 1.4
2015-Jan-22 19:28N 37°49' W 122°19'0 0.0
2015-Jan-22 18:28N 37°49' W 122°19'0 0.0
2015-Jan-22 17:31N 37°49' W 122°19'0 0.0
2015-Jan-22 16:31N 37°49' W 122°19'0 0.0
2015-Jan-22 15:22N 37°49' W 122°19'0 0.0
2015-Jan-22 14:31N 37°49' W 122°19'0 0.0
2015-Jan-22 13:31N 37°49' W 122°19'0 0.0
2015-Jan-22 12:28N 37°49' W 122°19'0 0.0
2015-Jan-22 11:31N 37°49' W 122°19'0 0.0
2015-Jan-22 10:25N 37°49' W 122°19'0 0.0
2015-Jan-22 09:31N 37°49' W 122°19'0 0.0
2015-Jan-22 08:31N 37°49' W 122°19'0 0.0
2015-Jan-22 07:31N 37°49' W 122°19'0 0.0
2015-Jan-22 06:31N 37°49' W 122°19'0 0.0
2015-Jan-22 05:28N 37°49' W 122°19'1 0.9
2015-Jan-22 04:30N 37°49' W 122°20'1 1.0
2015-Jan-22 03:33N 37°48' W 122°21'1 1.2
2015-Jan-22 02:33N 37°49' W 122°19'3 2.6
2015-Jan-22 01:33N 37°48' W 122°22'1 1.4
2015-Jan-22 00:32N 37°48' W 122°21'1 1.0
2015-Jan-21 23:31N 37°49' W 122°19'0 0.4
2015-Jan-21 22:50N 37°49' W 122°19'0 0.2
2015-Jan-21 22:44N 37°49' W 122°19'0 1.1
2015-Jan-21 22:33N 37°49' W 122°19'1 0.6
2015-Jan-21 21:29N 37°49' W 122°19'0 0.0
2015-Jan-21 20:32N 37°49' W 122°19'0 0.0
2015-Jan-21 19:26N 37°49' W 122°19'0 0.0
2015-Jan-21 18:26N 37°49' W 122°19'0 0.0
2015-Jan-21 17:32N 37°49' W 122°19'0 0.0
2015-Jan-21 16:32N 37°49' W 122°19'0 0.0
2015-Jan-21 15:32N 37°49' W 122°19'0 0.0
2015-Jan-21 14:32N 37°49' W 122°19'0 0.0
2015-Jan-21 13:32N 37°49' W 122°19'0 0.0
2015-Jan-21 12:32N 37°49' W 122°19'0 0.0
2015-Jan-21 11:32N 37°49' W 122°19'0 0.0
2015-Jan-21 10:32N 37°49' W 122°19'0 0.2
2015-Jan-21 09:33N 37°49' W 122°19'8 7.6
2015-Jan-21 08:32N 37°55' W 122°25'1 1.3
2015-Jan-21 07:28N 37°54' W 122°25'0 0.3
2015-Jan-21 06:32N 37°54' W 122°25'3 2.7
2015-Jan-21 05:33N 37°55' W 122°22'0 0.0
2015-Jan-21 04:33N 37°55' W 122°22'0 0.3
2015-Jan-21 03:30N 37°55' W 122°22'3 3.0
2015-Jan-21 02:33N 37°55' W 122°25'7 7.3
2015-Jan-21 01:33N 37°49' W 122°20'1 0.8
2015-Jan-21 00:33N 37°49' W 122°19'0 0.3
2015-Jan-20 23:28N 37°49' W 122°19'0 0.0
2015-Jan-20 22:31N 37°49' W 122°19'0 0.0
2015-Jan-20 21:28N 37°49' W 122°19'0 0.0
2015-Jan-20 20:28N 37°49' W 122°19'0 0.0
2015-Jan-20 19:31N 37°49' W 122°19'0 0.0
2015-Jan-20 18:31N 37°49' W 122°19'0 0.0
2015-Jan-20 17:31N 37°49' W 122°19'0 0.0
2015-Jan-20 16:31N 37°49' W 122°19'0 0.0
2015-Jan-20 15:31N 37°49' W 122°19'0 0.0
2015-Jan-20 14:31N 37°49' W 122°19'0 0.0
2015-Jan-20 13:31N 37°49' W 122°19'0 0.0
2015-Jan-20 12:31N 37°49' W 122°19'0 0.0
2015-Jan-20 11:31N 37°49' W 122°19'0 0.0
2015-Jan-20 10:31N 37°49' W 122°19'0 0.0
2015-Jan-20 09:31N 37°49' W 122°19'0 0.0
2015-Jan-20 08:31N 37°49' W 122°19'0 0.0
2015-Jan-20 07:31N 37°49' W 122°19'0 0.0
2015-Jan-20 06:31N 37°49' W 122°19'0 0.0
2015-Jan-20 05:31N 37°49' W 122°19'0 0.0
2015-Jan-20 04:31N 37°49' W 122°19'0 0.0
2015-Jan-20 03:28N 37°49' W 122°19'0 0.0
2015-Jan-20 02:25N 37°49' W 122°19'0 0.0
2015-Jan-20 01:31N 37°49' W 122°19'0 0.0
2015-Jan-20 00:31N 37°49' W 122°19'0 0.0
2015-Jan-19 23:31N 37°49' W 122°19'0 0.0
2015-Jan-19 22:31N 37°49' W 122°19'0 0.0
2015-Jan-19 21:31N 37°49' W 122°19'0 0.0
2015-Jan-19 20:31N 37°49' W 122°19'0 0.0
2015-Jan-19 19:31N 37°49' W 122°19'0 0.0
2015-Jan-19 18:31N 37°49' W 122°19'0 0.0
2015-Jan-19 17:31N 37°49' W 122°19'0 0.0
2015-Jan-19 16:31N 37°49' W 122°19'0 0.0
2015-Jan-19 15:31N 37°49' W 122°19'0 0.0
2015-Jan-19 14:31N 37°49' W 122°19'0 0.0
2015-Jan-19 13:31N 37°49' W 122°19'0 0.0
2015-Jan-19 12:31N 37°49' W 122°19'  

Dump ship's entire track history